Archer, Idaho
Current Conditions -  °F | °C
As of 3:53 AM on Thursday 18 Dec 2014 (Local Time) from KRXE Reporting Station
Haze Haze  
Wind Chill: 26°   Ceiling: 2500
Heat Index: 26°   Visibility: 6mi
Dew Point: 26°   Wind: 3mph
Humidity: 100%   Direction: 270°W
Pressure: 30.06"   Gusts: NA
Location:  43.7568°N, 111.624°W
Report Text: KRXE 181053Z AUTO 27003KT 6SM BR OVC025 M03/M03 A3006 RMK AO2 SLP207 T10331033
Loading
Personal Weather Stations






























Interactive Weather Map New forecast layout! Learn more

10-Day Weather Forecast

Advertisements
Track Severe Weather on mobile